createdAt,value
2019-04-14T00:01:35.001Z,33.50
2019-04-14T00:04:16.160Z,33.20
2019-04-14T00:06:46.365Z,35.03
2019-04-14T00:09:18.364Z,33.30
2019-04-14T00:11:50.474Z,35.93
2019-04-14T00:14:20.753Z,32.87
2019-04-14T00:16:51.016Z,37.63
2019-04-14T00:19:21.713Z,34.37
2019-04-14T00:21:52.252Z,36.73
2019-04-14T00:24:22.802Z,35.90
2019-04-14T00:26:53.698Z,40.93
2019-04-14T00:29:23.892Z,36.87
2019-04-14T00:31:55.302Z,37.67
2019-04-14T00:34:46.277Z,37.03
2019-04-14T00:37:18.449Z,35.00
2019-04-14T00:39:51.167Z,38.20
2019-04-14T00:42:23.440Z,39.97
2019-04-14T00:44:55.920Z,40.37
2019-04-14T00:47:28.820Z,40.80
2019-04-14T00:49:59.407Z,40.03
2019-04-14T00:52:29.819Z,39.43
2019-04-14T00:55:00.929Z,38.33
2019-04-14T00:57:31.159Z,38.93
2019-04-14T01:00:01.793Z,36.77
2019-04-14T01:02:33.983Z,39.27
2019-04-14T01:05:06.535Z,35.50
2019-04-14T01:07:37.008Z,37.53
2019-04-14T01:10:08.095Z,36.33
2019-04-14T01:12:38.748Z,40.67
2019-04-14T01:15:09.299Z,41.10
2019-04-14T01:17:39.545Z,37.37
2019-04-14T01:20:10.111Z,38.23
2019-04-14T01:22:40.200Z,38.00
2019-04-14T01:25:10.661Z,41.07
2019-04-14T01:27:40.692Z,36.63
2019-04-14T01:30:11.277Z,41.30
2019-04-14T01:32:41.520Z,37.93
2019-04-14T01:35:11.727Z,38.80
2019-04-14T01:37:41.948Z,39.93
2019-04-14T01:40:14.114Z,38.23
2019-04-14T01:42:44.275Z,37.93
2019-04-14T01:45:16.453Z,40.80
2019-04-14T01:47:46.731Z,39.57
2019-04-14T01:50:19.114Z,39.30
2019-04-14T01:52:54.443Z,39.83
2019-04-14T01:55:46.263Z,41.20
2019-04-14T01:58:18.653Z,41.07
2019-04-14T02:01:06.244Z,41.30
2019-04-14T02:03:36.649Z,42.23
2019-04-14T02:06:07.133Z,39.53
2019-04-14T02:08:37.261Z,44.23
2019-04-14T02:11:07.325Z,41.43
2019-04-14T02:13:37.560Z,43.80
2019-04-14T02:16:21.080Z,38.33
2019-04-14T02:18:39.020Z,39.73
2019-04-14T02:21:08.798Z,42.20
2019-04-14T02:23:38.695Z,41.70
2019-04-14T02:26:09.189Z,39.50
2019-04-14T02:28:39.666Z,43.90
2019-04-14T02:31:24.282Z,41.33
2019-04-14T02:34:07.496Z,41.03
2019-04-14T02:36:41.661Z,38.73
2019-04-14T02:39:13.504Z,39.33
2019-04-14T02:41:49.271Z,41.27
2019-04-14T02:44:33.614Z,38.70
2019-04-14T02:49:12.789Z,38.93
2019-04-14T02:51:49.733Z,40.47
2019-04-14T02:54:29.075Z,40.30
2019-04-14T02:56:52.847Z,40.13
2019-04-14T02:59:19.495Z,38.23
2019-04-14T03:02:09.677Z,45.43
2019-04-14T03:04:31.094Z,40.73
2019-04-14T03:06:58.190Z,40.83
2019-04-14T03:09:38.933Z,41.07
2019-04-14T03:12:03.002Z,39.90
2019-04-14T03:14:30.442Z,39.43
2019-04-14T03:21:03.525Z,39.53
2019-04-14T03:22:42.305Z,40.60
2019-04-14T03:25:16.726Z,40.80
2019-04-14T03:28:38.486Z,42.23
2019-04-14T03:34:11.209Z,48.60
2019-04-14T03:38:40.694Z,41.67
2019-04-14T03:43:48.480Z,40.00
2019-04-14T03:48:54.087Z,43.40
2019-04-14T03:51:16.681Z,48.70
2019-04-14T03:53:42.789Z,40.20
2019-04-14T03:55:59.967Z,42.90
2019-04-14T03:58:27.034Z,42.43
2019-04-14T04:00:57.611Z,44.47
2019-04-14T04:03:28.194Z,43.27
2019-04-14T04:05:58.605Z,42.80
2019-04-14T04:08:29.400Z,46.90
2019-04-14T04:11:00.471Z,41.43
2019-04-14T04:13:30.303Z,43.57
2019-04-14T04:16:13.809Z,43.80
2019-04-14T04:18:56.222Z,41.60
2019-04-14T04:21:34.182Z,47.20
2019-04-14T04:24:06.442Z,46.60
2019-04-14T04:26:38.642Z,48.70
2019-04-14T04:29:11.172Z,47.07
2019-04-14T04:31:48.863Z,44.67
2019-04-14T04:34:35.866Z,43.30
2019-04-14T04:37:08.271Z,43.13
2019-04-14T04:39:43.292Z,41.23
2019-04-14T04:42:13.344Z,42.77
2019-04-14T04:44:44.118Z,44.17
2019-04-14T04:47:14.778Z,45.23
2019-04-14T04:49:44.727Z,45.03
2019-04-14T04:52:16.118Z,45.10
2019-04-14T04:54:49.537Z,42.70
2019-04-14T04:57:19.900Z,42.33
2019-04-14T04:59:50.194Z,40.23
2019-04-14T05:02:19.980Z,44.60
2019-04-14T05:04:50.564Z,47.23
2019-04-14T05:07:20.879Z,50.57
2019-04-14T05:09:55.597Z,47.03
2019-04-14T05:12:30.595Z,44.67
2019-04-14T05:15:03.627Z,46.10
2019-04-14T05:17:41.417Z,46.87
2019-04-14T05:20:11.678Z,48.10
2019-04-14T05:22:42.491Z,49.13
2019-04-14T05:25:12.497Z,47.03
2019-04-14T05:27:43.068Z,44.60
2019-04-14T05:30:13.292Z,44.57
2019-04-14T05:32:45.877Z,45.23
2019-04-14T05:35:16.208Z,47.70
2019-04-14T05:37:46.486Z,43.17
2019-04-14T05:40:16.785Z,46.90
2019-04-14T05:42:47.332Z,47.27
2019-04-14T05:45:17.670Z,49.13
2019-04-14T05:47:47.891Z,48.07
2019-04-14T05:50:18.142Z,45.80
2019-04-14T05:52:49.269Z,48.07
2019-04-14T05:55:19.890Z,51.60
2019-04-14T05:57:50.261Z,47.07
2019-04-14T06:00:21.208Z,46.53
2019-04-14T06:02:51.180Z,49.00
2019-04-14T06:05:21.190Z,51.33
2019-04-14T06:07:51.156Z,47.17
2019-04-14T06:10:20.954Z,46.00
2019-04-14T06:12:50.745Z,50.70
2019-04-14T06:15:20.544Z,47.13
2019-04-14T06:17:50.340Z,49.63
2019-04-14T06:20:20.170Z,50.40
2019-04-14T06:22:49.987Z,48.73
2019-04-14T06:25:19.790Z,52.07
2019-04-14T06:27:49.595Z,48.93
2019-04-14T06:30:33.236Z,46.17
2019-04-14T06:33:06.390Z,49.00
2019-04-14T06:35:46.607Z,50.93
2019-04-14T06:38:18.040Z,52.23
2019-04-14T06:40:49.474Z,49.20
2019-04-14T06:43:19.254Z,48.07
2019-04-14T06:45:49.057Z,48.80
2019-04-14T06:48:18.852Z,47.17
2019-04-14T06:50:48.682Z,48.33
2019-04-14T06:53:18.486Z,44.70
2019-04-14T06:55:48.271Z,45.83
2019-04-14T06:58:19.276Z,45.93
2019-04-14T07:00:49.079Z,45.33
2019-04-14T07:03:18.870Z,52.73
2019-04-14T07:05:48.742Z,48.17
2019-04-14T07:08:18.537Z,44.70
2019-04-14T07:10:48.346Z,46.53
2019-04-14T07:13:19.580Z,37.93
2019-04-14T07:15:49.574Z,39.93
2019-04-14T07:18:19.372Z,42.57
2019-04-14T07:20:50.350Z,38.10
2019-04-14T07:23:20.693Z,37.67
2019-04-14T07:25:50.488Z,38.43
2019-04-14T07:28:20.275Z,36.37
2019-04-14T07:30:57.702Z,37.67
2019-04-14T07:33:44.388Z,34.70
2019-04-14T07:36:24.561Z,34.83
2019-04-14T07:39:12.160Z,33.23
2019-04-14T07:41:46.624Z,32.87
2019-04-14T07:44:34.200Z,32.30
2019-04-14T07:47:08.571Z,32.80
2019-04-14T07:49:56.234Z,29.97
2019-04-14T07:52:27.724Z,31.83
2019-04-14T07:55:08.203Z,32.50
2019-04-14T07:57:55.956Z,30.33
2019-04-14T08:00:45.555Z,29.67
2019-04-14T08:03:32.434Z,32.00
2019-04-14T08:06:02.210Z,31.87
2019-04-14T08:08:32.009Z,28.40
2019-04-14T08:11:01.818Z,30.63
2019-04-14T08:13:32.770Z,33.07
2019-04-14T08:16:02.650Z,28.00
2019-04-14T08:18:32.442Z,29.47
2019-04-14T08:21:02.231Z,26.37
2019-04-14T08:23:32.011Z,31.77
2019-04-14T08:26:01.840Z,33.30
2019-04-14T08:28:31.622Z,29.73
2019-04-14T08:31:01.426Z,27.20
2019-04-14T08:33:31.218Z,29.67
2019-04-14T08:36:02.154Z,26.40
2019-04-14T08:38:31.956Z,28.95
2019-04-14T08:41:01.740Z,27.27
2019-04-14T08:43:45.222Z,27.23
2019-04-14T08:46:33.351Z,29.87
2019-04-14T08:49:38.919Z,23.80
2019-04-14T08:52:19.503Z,24.80
2019-04-14T08:54:56.810Z,25.97
2019-04-14T08:57:31.017Z,25.40
2019-04-14T09:00:05.323Z,25.63
2019-04-14T09:02:54.491Z,24.73
2019-04-14T09:05:25.955Z,25.90
2019-04-14T09:08:00.025Z,27.70
2019-04-14T09:10:31.460Z,25.73
2019-04-14T09:13:02.427Z,27.83
2019-04-14T09:15:32.261Z,25.27
2019-04-14T09:18:02.041Z,28.37
2019-04-14T09:20:31.853Z,25.07
2019-04-14T09:23:01.653Z,25.77
2019-04-14T09:25:31.438Z,27.07
2019-04-14T09:28:01.307Z,23.37
2019-04-14T09:30:31.096Z,22.90
2019-04-14T09:33:00.914Z,26.47
2019-04-14T09:35:30.713Z,23.07
2019-04-14T09:38:00.507Z,22.57
2019-04-14T09:40:30.325Z,23.87
2019-04-14T09:43:00.094Z,27.00
2019-04-14T09:45:29.900Z,23.13
2019-04-14T09:47:59.693Z,24.43
2019-04-14T09:50:29.510Z,24.67
2019-04-14T09:52:59.304Z,23.55
2019-04-14T09:55:29.093Z,23.22
2019-04-14T09:57:58.903Z,22.98
2019-04-14T10:00:28.695Z,25.52
2019-04-14T10:02:58.595Z,24.25
2019-04-14T10:05:28.367Z,22.02
2019-04-14T10:07:58.231Z,22.43
2019-04-14T10:10:28.135Z,24.27
2019-04-14T10:13:00.227Z,22.20
2019-04-14T10:15:30.031Z,22.93
2019-04-14T10:17:59.891Z,23.90
2019-04-14T10:20:29.691Z,20.73
2019-04-14T10:22:59.529Z,21.63
2019-04-14T10:25:29.331Z,22.97
2019-04-14T10:27:59.127Z,20.97
2019-04-14T10:30:28.947Z,22.50
2019-04-14T10:32:58.755Z,22.07
2019-04-14T10:35:28.543Z,22.33
2019-04-14T10:37:58.354Z,22.90
2019-04-14T10:40:28.147Z,22.03
2019-04-14T10:42:57.962Z,22.07
2019-04-14T10:45:27.735Z,23.60
2019-04-14T10:47:57.612Z,22.73
2019-04-14T10:50:30.955Z,21.37
2019-04-14T10:52:58.887Z,22.83
2019-04-14T10:55:28.694Z,21.67
2019-04-14T10:57:58.565Z,20.33
2019-04-14T11:00:28.362Z,23.23
2019-04-14T11:02:58.257Z,19.47
2019-04-14T11:05:29.820Z,24.63
2019-04-14T11:07:59.610Z,22.77
2019-04-14T11:10:29.407Z,23.10
2019-04-14T11:12:59.215Z,18.80
2019-04-14T11:15:29.003Z,21.23
2019-04-14T11:17:58.815Z,24.00
2019-04-14T11:20:28.640Z,20.73
2019-04-14T11:23:03.407Z,19.63
2019-04-14T11:25:30.000Z,23.00
2019-04-14T11:27:59.799Z,19.80
2019-04-14T11:30:29.591Z,17.07
2019-04-14T11:33:03.787Z,18.73
2019-04-14T11:35:35.235Z,18.47
2019-04-14T11:38:18.757Z,19.40
2019-04-14T11:40:50.203Z,18.07
2019-04-14T11:43:20.086Z,17.70
2019-04-14T11:45:51.023Z,18.10
2019-04-14T11:48:20.916Z,17.17
2019-04-14T11:50:50.719Z,16.67
2019-04-14T11:53:20.511Z,16.67
2019-04-14T11:55:50.378Z,18.37
2019-04-14T11:58:20.189Z,19.17
2019-04-14T12:00:54.652Z,18.50
2019-04-14T12:03:34.689Z,14.57
2019-04-14T12:06:22.734Z,15.00
2019-04-14T12:08:56.912Z,20.50
2019-04-14T12:11:26.734Z,17.30
2019-04-14T12:13:56.704Z,17.00
2019-04-14T12:16:26.507Z,16.37
2019-04-14T12:18:56.316Z,15.87
2019-04-14T12:21:26.114Z,15.43
2019-04-14T12:23:55.926Z,15.67
2019-04-14T12:26:25.747Z,14.03
2019-04-14T12:28:55.868Z,14.17
2019-04-14T12:31:26.524Z,15.20
2019-04-14T12:33:56.468Z,13.30
2019-04-14T12:36:26.263Z,14.83
2019-04-14T12:38:56.074Z,16.23
2019-04-14T12:41:28.684Z,13.87
2019-04-14T12:44:17.051Z,16.57
2019-04-14T12:46:48.483Z,13.43
2019-04-14T12:49:19.945Z,15.27
2019-04-14T12:51:54.135Z,16.97
2019-04-14T12:54:25.987Z,17.23
2019-04-14T12:56:55.784Z,16.07
2019-04-14T12:59:25.773Z,16.77
2019-04-14T13:01:57.219Z,13.77
2019-04-14T13:04:27.058Z,16.97
2019-04-14T13:06:56.847Z,14.97
2019-04-14T13:09:26.728Z,14.80
2019-04-14T13:11:56.515Z,14.47
2019-04-14T13:14:26.320Z,15.57
2019-04-14T13:16:57.268Z,15.13
2019-04-14T13:19:27.075Z,16.13
2019-04-14T13:21:56.884Z,12.30
2019-04-14T13:24:26.686Z,13.30
2019-04-14T13:26:56.483Z,16.93
2019-04-14T13:29:26.282Z,14.67
2019-04-14T13:31:56.077Z,14.60
2019-04-14T13:34:25.870Z,14.03
2019-04-14T13:36:55.678Z,14.03
2019-04-14T13:39:25.469Z,15.60
2019-04-14T13:41:55.277Z,13.83
2019-04-14T13:44:25.070Z,15.60
2019-04-14T13:46:54.888Z,14.05
2019-04-14T13:49:24.670Z,12.47
2019-04-14T13:51:54.484Z,15.32
2019-04-14T13:54:24.294Z,18.10
2019-04-14T13:56:54.172Z,15.90
2019-04-14T13:59:23.999Z,12.70
2019-04-14T14:01:53.809Z,15.45
2019-04-14T14:04:23.627Z,17.98
2019-04-14T14:06:53.420Z,15.48
2019-04-14T14:09:23.245Z,13.93
2019-04-14T14:12:06.700Z,15.58
2019-04-14T14:17:36.508Z,12.15
2019-04-14T14:20:08.708Z,13.10
2019-04-14T14:22:43.034Z,13.10
2019-04-14T14:25:14.460Z,13.13
2019-04-14T14:27:44.256Z,12.00
2019-04-14T14:30:16.345Z,12.95
2019-04-14T14:32:46.138Z,22.52
2019-04-14T14:35:15.957Z,13.75
2019-04-14T14:37:45.750Z,13.50
2019-04-14T14:40:16.273Z,13.98
2019-04-14T14:42:46.066Z,13.58
2019-04-14T14:45:17.820Z,14.53
2019-04-14T14:47:52.199Z,37.63
2019-04-14T14:50:26.627Z,13.40
2019-04-14T14:52:56.432Z,14.63
2019-04-14T14:55:26.249Z,15.03
2019-04-14T14:57:58.792Z,14.85
2019-04-14T15:00:34.015Z,15.45
2019-04-14T15:03:04.083Z,13.35
2019-04-14T15:05:33.882Z,15.88
2019-04-14T15:08:04.018Z,14.40
2019-04-14T15:10:33.828Z,15.78
2019-04-14T15:13:03.641Z,13.05
2019-04-14T15:15:33.477Z,15.32
2019-04-14T15:18:03.357Z,15.88
2019-04-14T15:20:33.223Z,13.22
2019-04-14T15:23:03.042Z,15.00
2019-04-14T15:25:32.944Z,14.13
2019-04-14T15:28:02.761Z,13.80
2019-04-14T15:30:32.556Z,13.62
2019-04-14T15:33:02.369Z,25.75
2019-04-14T15:35:32.439Z,11.75
2019-04-14T15:38:03.208Z,13.60
2019-04-14T15:40:33.020Z,16.35
2019-04-14T15:43:02.812Z,15.85
2019-04-14T15:45:32.612Z,12.82
2019-04-14T15:48:02.414Z,11.88
2019-04-14T15:50:32.232Z,15.10
2019-04-14T15:53:02.031Z,11.70
2019-04-14T15:55:38.139Z,13.28
2019-04-14T15:58:21.650Z,13.10
2019-04-14T16:01:10.657Z,15.70
2019-04-14T16:03:58.509Z,17.27
2019-04-14T16:06:32.677Z,15.50
2019-04-14T16:09:09.836Z,15.32
2019-04-14T16:11:45.853Z,16.10
2019-04-14T16:14:20.224Z,13.90
2019-04-14T16:16:51.678Z,15.20
2019-04-14T16:19:23.107Z,17.90
2019-04-14T16:21:52.934Z,14.95
2019-04-14T16:24:22.742Z,13.23
2019-04-14T16:26:57.372Z,21.10
2019-04-14T16:29:28.820Z,16.73
2019-04-14T16:32:09.231Z,18.23
2019-04-14T16:34:56.015Z,15.13
2019-04-14T16:37:25.823Z,15.87
2019-04-14T16:39:55.624Z,16.03
2019-04-14T16:42:25.456Z,16.35
2019-04-14T16:44:55.255Z,16.67
2019-04-14T16:47:25.069Z,20.02
2019-04-14T16:49:54.960Z,15.72
2019-04-14T16:52:26.415Z,19.35
2019-04-14T16:55:00.806Z,16.90
2019-04-14T16:57:51.657Z,16.70
2019-04-14T17:00:23.232Z,16.93
2019-04-14T17:02:53.113Z,19.05
2019-04-14T17:05:22.933Z,16.95
2019-04-14T17:07:53.721Z,15.90
2019-04-14T17:10:23.735Z,16.23
2019-04-14T17:12:53.676Z,18.15
2019-04-14T17:15:25.133Z,17.67
2019-04-14T17:18:05.778Z,16.20
2019-04-14T17:20:55.330Z,16.82
2019-04-14T17:23:38.640Z,16.70
2019-04-14T17:26:12.872Z,15.30
2019-04-14T17:28:44.386Z,14.87
2019-04-14T17:31:32.108Z,16.70
2019-04-14T17:34:25.847Z,17.00
2019-04-14T17:37:14.044Z,13.67
2019-04-14T17:39:45.470Z,15.53
2019-04-14T17:42:19.617Z,16.83
2019-04-14T17:44:53.923Z,16.07
2019-04-14T17:47:25.460Z,22.23
2019-04-14T17:49:59.940Z,18.53
2019-04-14T17:52:37.564Z,15.07
2019-04-14T17:55:22.035Z,18.23
2019-04-14T17:58:09.903Z,18.60
2019-04-14T18:00:57.835Z,17.63
2019-04-14T18:03:38.330Z,16.20
2019-04-14T18:06:25.100Z,14.97
2019-04-14T18:09:02.531Z,16.90
2019-04-14T18:11:58.614Z,20.30
2019-04-14T18:14:30.110Z,16.10
2019-04-14T18:17:07.538Z,16.50
2019-04-14T18:19:38.996Z,20.53
2019-04-14T18:22:08.793Z,17.73
2019-04-14T18:24:42.692Z,18.43
2019-04-14T18:27:10.089Z,17.23
2019-04-14T18:29:44.225Z,18.30
2019-04-14T18:32:21.717Z,18.77
2019-04-14T18:35:05.194Z,18.40
2019-04-14T18:37:48.873Z,18.03
2019-04-14T18:40:20.316Z,14.93
2019-04-14T18:42:57.491Z,16.93
2019-04-14T18:45:34.710Z,15.47
2019-04-14T18:48:12.072Z,20.67
2019-04-14T18:51:03.380Z,14.93
2019-04-14T18:53:40.478Z,17.37
2019-04-14T18:56:28.587Z,16.90
2019-04-14T18:59:16.260Z,16.80
2019-04-14T19:01:47.764Z,18.50
2019-04-14T19:04:17.576Z,16.80
2019-04-14T19:06:47.369Z,17.60
2019-04-14T19:09:17.167Z,18.05
2019-04-14T19:11:48.958Z,17.20
2019-04-14T19:14:20.512Z,15.43
2019-04-14T19:16:54.828Z,15.77
2019-04-14T19:19:24.843Z,15.33
2019-04-14T19:21:54.628Z,16.13
2019-04-14T19:24:24.441Z,18.00
2019-04-14T19:26:54.279Z,17.33
2019-04-14T19:29:24.079Z,16.77
2019-04-14T19:31:53.997Z,17.30
2019-04-14T19:34:23.849Z,20.47
2019-04-14T19:36:53.651Z,19.53
2019-04-14T19:39:23.465Z,18.70
2019-04-14T19:41:53.381Z,17.60
2019-04-14T19:44:23.181Z,17.37
2019-04-14T19:46:53.207Z,19.60
2019-04-14T19:49:23.145Z,18.03
2019-04-14T19:51:52.927Z,17.90
2019-04-14T19:54:25.005Z,16.17
2019-04-14T19:56:54.887Z,16.57
2019-04-14T19:59:24.715Z,15.73
2019-04-14T20:01:54.526Z,17.40
2019-04-14T20:04:24.396Z,17.87
2019-04-14T20:06:54.713Z,16.37
2019-04-14T20:09:24.538Z,17.37
2019-04-14T20:11:54.462Z,14.83
2019-04-14T20:14:25.850Z,17.27
2019-04-14T20:17:06.228Z,15.20
2019-04-14T20:19:50.281Z,17.00
2019-04-14T20:22:24.249Z,16.53
2019-04-14T20:25:10.865Z,14.90
2019-04-14T20:27:45.154Z,16.53
2019-04-14T20:30:16.899Z,15.97
2019-04-14T20:32:48.420Z,17.10
2019-04-14T20:35:19.355Z,21.27
2019-04-14T20:37:52.885Z,16.83
2019-04-14T20:40:22.935Z,14.37
2019-04-14T20:42:53.176Z,16.17
2019-04-14T20:45:23.166Z,16.07
2019-04-14T20:47:53.333Z,15.47
2019-04-14T20:50:23.461Z,16.07
2019-04-14T20:52:55.781Z,13.90
2019-04-14T20:55:25.746Z,14.37
2019-04-14T20:57:55.917Z,15.50
2019-04-14T21:00:26.801Z,13.70
2019-04-14T21:03:04.560Z,15.30
2019-04-14T21:05:42.000Z,16.90
2019-04-14T21:08:25.282Z,15.73
2019-04-14T21:10:58.569Z,14.43
2019-04-14T21:13:43.959Z,15.53
2019-04-14T21:16:27.595Z,15.90
2019-04-14T21:18:59.482Z,15.37
2019-04-14T21:21:33.886Z,12.73
2019-04-14T21:24:06.073Z,17.57
2019-04-14T21:26:49.623Z,13.93
2019-04-14T21:29:21.252Z,14.33
2019-04-14T21:31:52.933Z,14.37
2019-04-14T21:34:33.596Z,18.23
2019-04-14T21:37:14.011Z,15.00
2019-04-14T21:39:54.668Z,13.40
2019-04-14T21:42:25.874Z,13.50
2019-04-14T21:44:56.181Z,14.83
2019-04-14T21:47:26.317Z,14.27
2019-04-14T21:49:56.625Z,15.90
2019-04-14T21:52:34.320Z,13.20
2019-04-14T21:55:05.410Z,17.03
2019-04-14T21:57:42.951Z,15.83
2019-04-14T22:00:33.997Z,16.20
2019-04-14T22:03:13.043Z,14.03
2019-04-14T22:05:47.611Z,14.00
2019-04-14T22:08:25.135Z,14.80
2019-04-14T22:10:56.035Z,13.90
2019-04-14T22:13:26.263Z,14.03
2019-04-14T22:15:56.677Z,13.67
2019-04-14T22:18:27.079Z,12.47
2019-04-14T22:20:57.159Z,12.93
2019-04-14T22:23:27.506Z,13.37
2019-04-14T22:25:57.565Z,12.97
2019-04-14T22:28:27.823Z,14.13
2019-04-14T22:30:57.869Z,11.97
2019-04-14T22:33:27.894Z,11.20
2019-04-14T22:35:58.188Z,12.30
2019-04-14T22:38:28.198Z,10.77
2019-04-14T22:40:58.289Z,10.97
2019-04-14T22:43:28.559Z,13.10
2019-04-14T22:46:03.413Z,11.03
2019-04-14T22:48:34.013Z,12.40
2019-04-14T22:51:04.188Z,12.97
2019-04-14T22:53:34.275Z,12.93
2019-04-14T22:56:04.347Z,11.60
2019-04-14T22:58:34.646Z,9.17
2019-04-14T23:01:21.277Z,11.57
2019-04-14T23:04:01.710Z,11.40
2019-04-14T23:06:34.543Z,10.97
2019-04-14T23:09:17.625Z,9.43
2019-04-14T23:12:01.294Z,11.33
2019-04-14T23:14:36.081Z,9.67
2019-04-14T23:17:23.854Z,9.00
2019-04-14T23:19:58.510Z,8.63
2019-04-14T23:22:36.182Z,7.40
2019-04-14T23:25:06.558Z,8.07
2019-04-14T23:27:36.732Z,8.27
2019-04-14T23:30:07.256Z,8.03
2019-04-14T23:32:37.304Z,8.73
2019-04-14T23:35:08.457Z,8.47
2019-04-14T23:37:38.758Z,8.73
2019-04-14T23:40:09.397Z,6.90
2019-04-14T23:42:39.665Z,7.27
2019-04-14T23:45:09.834Z,7.80
2019-04-14T23:47:39.745Z,7.53
2019-04-14T23:50:09.843Z,8.30
2019-04-14T23:52:39.966Z,7.37
2019-04-14T23:55:09.917Z,8.73
2019-04-14T23:57:39.673Z,7.47
